sensor_id;sensor_type;location;lat;lon;timestamp;pressure;altitude;pressure_sealevel;temperature;humidity
58757;BME280;44527;47.460;19.016;2023-01-27T00:01:45;100354.22;;;2.90;71.88
58757;BME280;44527;47.460;19.016;2023-01-27T00:04:48;100353.69;;;2.81;71.11
58757;BME280;44527;47.460;19.016;2023-01-27T00:07:55;100348.87;;;2.95;70.25
58757;BME280;44527;47.460;19.016;2023-01-27T00:11:00;100351.50;;;2.93;70.96
58757;BME280;44527;47.460;19.016;2023-01-27T00:14:22;100346.75;;;2.81;72.04
58757;BME280;44527;47.460;19.016;2023-01-27T00:17:24;100345.59;;;2.90;72.04
58757;BME280;44527;47.460;19.016;2023-01-27T00:20:27;100345.87;;;2.82;72.42
58757;BME280;44527;47.460;19.016;2023-01-27T00:23:48;100343.72;;;2.93;72.01
58757;BME280;44527;47.460;19.016;2023-01-27T00:27:09;100342.63;;;3.01;71.30
58757;BME280;44527;47.460;19.016;2023-01-27T00:30:13;100342.13;;;2.91;72.20
58757;BME280;44527;47.460;19.016;2023-01-27T00:33:15;100335.37;;;2.85;72.33
58757;BME280;44527;47.460;19.016;2023-01-27T00:36:30;100332.81;;;2.59;73.31
58757;BME280;44527;47.460;19.016;2023-01-27T00:39:33;100336.00;;;2.67;73.10
58757;BME280;44527;47.460;19.016;2023-01-27T00:42:36;100337.12;;;2.85;72.71
58757;BME280;44527;47.460;19.016;2023-01-27T00:45:39;100340.34;;;2.66;73.86
58757;BME280;44527;47.460;19.016;2023-01-27T00:48:51;100342.75;;;2.46;73.16
58757;BME280;44527;47.460;19.016;2023-01-27T00:51:54;100336.75;;;2.44;73.61
58757;BME280;44527;47.460;19.016;2023-01-27T00:54:57;100333.38;;;2.42;73.81
58757;BME280;44527;47.460;19.016;2023-01-27T00:57:59;100336.13;;;2.37;73.93
58757;BME280;44527;47.460;19.016;2023-01-27T01:01:05;100339.22;;;2.48;73.82
58757;BME280;44527;47.460;19.016;2023-01-27T01:04:09;100332.84;;;2.57;72.70
58757;BME280;44527;47.460;19.016;2023-01-27T01:07:12;100336.03;;;2.40;72.43
58757;BME280;44527;47.460;19.016;2023-01-27T01:10:14;100336.72;;;2.45;73.16
58757;BME280;44527;47.460;19.016;2023-01-27T01:13:17;100336.75;;;2.44;72.50
58757;BME280;44527;47.460;19.016;2023-01-27T01:16:23;100335.31;;;2.35;72.80
58757;BME280;44527;47.460;19.016;2023-01-27T01:19:29;100329.19;;;2.38;73.14
58757;BME280;44527;47.460;19.016;2023-01-27T01:22:31;100328.69;;;2.26;72.83
58757;BME280;44527;47.460;19.016;2023-01-27T01:25:35;100325.41;;;2.21;73.60
58757;BME280;44527;47.460;19.016;2023-01-27T01:28:39;100328.47;;;2.33;73.70
58757;BME280;44527;47.460;19.016;2023-01-27T01:31:42;100334.06;;;2.20;74.05
58757;BME280;44527;47.460;19.016;2023-01-27T01:34:44;100324.75;;;2.15;73.58
58757;BME280;44527;47.460;19.016;2023-01-27T01:37:51;100320.22;;;2.21;73.52
58757;BME280;44527;47.460;19.016;2023-01-27T01:40:54;100320.97;;;2.25;73.68
58757;BME280;44527;47.460;19.016;2023-01-27T01:43:56;100329.56;;;2.27;73.74
58757;BME280;44527;47.460;19.016;2023-01-27T01:46:59;100323.47;;;2.28;73.33
58757;BME280;44527;47.460;19.016;2023-01-27T01:50:02;100309.41;;;2.09;73.39
58757;BME280;44527;47.460;19.016;2023-01-27T01:53:05;100324.06;;;2.10;74.23
58757;BME280;44527;47.460;19.016;2023-01-27T01:56:20;100319.63;;;2.13;73.99
58757;BME280;44527;47.460;19.016;2023-01-27T01:59:33;100318.78;;;2.13;73.50
58757;BME280;44527;47.460;19.016;2023-01-27T02:02:38;100326.19;;;2.23;73.38
58757;BME280;44527;47.460;19.016;2023-01-27T02:05:43;100320.56;;;2.11;75.06
58757;BME280;44527;47.460;19.016;2023-01-27T02:08:48;100307.12;;;2.26;74.55
58757;BME280;44527;47.460;19.016;2023-01-27T02:11:52;100312.34;;;2.51;73.42
58757;BME280;44527;47.460;19.016;2023-01-27T02:14:54;100309.22;;;2.41;71.86
58757;BME280;44527;47.460;19.016;2023-01-27T02:17:58;100305.88;;;2.38;71.27
58757;BME280;44527;47.460;19.016;2023-01-27T02:21:01;100299.22;;;2.30;71.52
58757;BME280;44527;47.460;19.016;2023-01-27T02:24:05;100301.84;;;2.29;70.41
58757;BME280;44527;47.460;19.016;2023-01-27T02:27:12;100291.87;;;2.17;70.10
58757;BME280;44527;47.460;19.016;2023-01-27T02:30:15;100294.87;;;2.31;70.41
58757;BME280;44527;47.460;19.016;2023-01-27T02:33:18;100294.69;;;2.37;69.46
58757;BME280;44527;47.460;19.016;2023-01-27T02:36:21;100288.84;;;2.30;69.25
58757;BME280;44527;47.460;19.016;2023-01-27T02:39:28;100274.34;;;2.25;69.80
58757;BME280;44527;47.460;19.016;2023-01-27T02:42:32;100271.88;;;2.22;69.92
58757;BME280;44527;47.460;19.016;2023-01-27T02:45:35;100270.22;;;2.19;69.81
58757;BME280;44527;47.460;19.016;2023-01-27T02:48:38;100272.41;;;2.05;69.33
58757;BME280;44527;47.460;19.016;2023-01-27T02:51:41;100264.09;;;1.95;68.57
58757;BME280;44527;47.460;19.016;2023-01-27T02:54:44;100261.56;;;1.94;68.60
58757;BME280;44527;47.460;19.016;2023-01-27T02:57:47;100264.66;;;1.77;69.52
58757;BME280;44527;47.460;19.016;2023-01-27T03:00:50;100258.91;;;1.95;68.57
58757;BME280;44527;47.460;19.016;2023-01-27T03:03:53;100253.94;;;1.89;68.50
58757;BME280;44527;47.460;19.016;2023-01-27T03:06:56;100258.47;;;1.54;70.32
58757;BME280;44527;47.460;19.016;2023-01-27T03:10:01;100255.81;;;1.56;70.00
58757;BME280;44527;47.460;19.016;2023-01-27T03:13:03;100247.41;;;1.49;71.56
58757;BME280;44527;47.460;19.016;2023-01-27T03:16:07;100242.50;;;1.68;69.36
58757;BME280;44527;47.460;19.016;2023-01-27T03:19:28;100249.16;;;1.49;69.95
58757;BME280;44527;47.460;19.016;2023-01-27T03:22:32;100240.81;;;1.39;72.07
58757;BME280;44527;47.460;19.016;2023-01-27T03:25:34;100239.31;;;1.32;71.25
58757;BME280;44527;47.460;19.016;2023-01-27T03:28:37;100238.34;;;1.34;71.60
58757;BME280;44527;47.460;19.016;2023-01-27T03:31:40;100225.25;;;1.41;71.78
58757;BME280;44527;47.460;19.016;2023-01-27T03:34:44;100218.47;;;1.36;72.20
58757;BME280;44527;47.460;19.016;2023-01-27T03:37:48;100230.94;;;1.24;71.30
58757;BME280;44527;47.460;19.016;2023-01-27T03:41:09;100230.97;;;1.22;71.62
58757;BME280;44527;47.460;19.016;2023-01-27T03:44:31;100232.22;;;1.38;71.52
58757;BME280;44527;47.460;19.016;2023-01-27T03:47:52;100216.37;;;1.49;70.65
58757;BME280;44527;47.460;19.016;2023-01-27T03:50:59;100223.72;;;1.63;70.45
58757;BME280;44527;47.460;19.016;2023-01-27T03:54:02;100213.31;;;1.65;69.88
58757;BME280;44527;47.460;19.016;2023-01-27T03:57:04;100206.25;;;1.70;68.31
58757;BME280;44527;47.460;19.016;2023-01-27T04:00:08;100213.91;;;1.73;68.97
58757;BME280;44527;47.460;19.016;2023-01-27T04:03:13;100207.09;;;1.70;69.12
58757;BME280;44527;47.460;19.016;2023-01-27T04:06:37;100206.06;;;1.76;67.98
58757;BME280;44527;47.460;19.016;2023-01-27T04:09:59;100198.03;;;1.57;68.03
58757;BME280;44527;47.460;19.016;2023-01-27T04:13:01;100211.16;;;1.77;68.13
58757;BME280;44527;47.460;19.016;2023-01-27T04:16:04;100206.19;;;1.71;67.59
58757;BME280;44527;47.460;19.016;2023-01-27T04:19:09;100201.38;;;1.87;67.83
58757;BME280;44527;47.460;19.016;2023-01-27T04:22:13;100206.06;;;1.76;68.18
58757;BME280;44527;47.460;19.016;2023-01-27T04:25:16;100196.72;;;1.72;68.51
58757;BME280;44527;47.460;19.016;2023-01-27T04:28:20;100203.37;;;1.79;68.56
58757;BME280;44527;47.460;19.016;2023-01-27T04:31:42;100204.75;;;1.63;68.19
58757;BME280;44527;47.460;19.016;2023-01-27T04:34:45;100201.50;;;1.56;68.46
58757;BME280;44527;47.460;19.016;2023-01-27T04:37:47;100199.59;;;1.63;68.01
58757;BME280;44527;47.460;19.016;2023-01-27T04:40:50;100207.63;;;1.53;69.46
58757;BME280;44527;47.460;19.016;2023-01-27T04:43:52;100211.94;;;1.53;68.55
58757;BME280;44527;47.460;19.016;2023-01-27T04:46:55;100211.34;;;1.45;69.73
58757;BME280;44527;47.460;19.016;2023-01-27T04:49:57;100216.97;;;1.29;69.42
58757;BME280;44527;47.460;19.016;2023-01-27T04:53:00;100214.34;;;1.31;69.42
58757;BME280;44527;47.460;19.016;2023-01-27T04:56:05;100215.09;;;1.34;69.32
58757;BME280;44527;47.460;19.016;2023-01-27T04:59:10;100219.09;;;1.17;70.27
58757;BME280;44527;47.460;19.016;2023-01-27T05:02:13;100224.28;;;1.15;69.91
58757;BME280;44527;47.460;19.016;2023-01-27T05:05:16;100215.47;;;0.93;72.34
58757;BME280;44527;47.460;19.016;2023-01-27T05:08:18;100222.59;;;0.84;72.91
58757;BME280;44527;47.460;19.016;2023-01-27T05:11:21;100217.31;;;0.89;72.62
58757;BME280;44527;47.460;19.016;2023-01-27T05:14:24;100224.19;;;0.88;73.13
58757;BME280;44527;47.460;19.016;2023-01-27T05:17:31;100215.25;;;1.00;72.29
58757;BME280;44527;47.460;19.016;2023-01-27T05:20:34;100219.00;;;0.88;72.42
58757;BME280;44527;47.460;19.016;2023-01-27T05:23:36;100213.50;;;0.71;73.29
58757;BME280;44527;47.460;19.016;2023-01-27T05:26:39;100216.00;;;0.74;73.79
58757;BME280;44527;47.460;19.016;2023-01-27T05:29:42;100219.00;;;0.88;72.18
58757;BME280;44527;47.460;19.016;2023-01-27T05:32:45;100210.75;;;0.77;72.44
58757;BME280;44527;47.460;19.016;2023-01-27T05:35:47;100221.00;;;0.79;72.39
58757;BME280;44527;47.460;19.016;2023-01-27T05:38:50;100215.38;;;0.96;72.07
58757;BME280;44527;47.460;19.016;2023-01-27T05:41:53;100216.97;;;1.00;70.56
58757;BME280;44527;47.460;19.016;2023-01-27T05:44:55;100224.88;;;0.95;72.14
58757;BME280;44527;47.460;19.016;2023-01-27T05:47:57;100220.47;;;0.99;71.37
58757;BME280;44527;47.460;19.016;2023-01-27T05:51:01;100222.12;;;1.01;71.38
58757;BME280;44527;47.460;19.016;2023-01-27T05:54:04;100209.72;;;0.83;72.86
58757;BME280;44527;47.460;19.016;2023-01-27T05:57:07;100214.19;;;0.76;72.45
58757;BME280;44527;47.460;19.016;2023-01-27T06:00:10;100225.41;;;0.77;73.02
58757;BME280;44527;47.460;19.016;2023-01-27T06:03:12;100217.72;;;0.74;73.01
58757;BME280;44527;47.460;19.016;2023-01-27T06:06:21;100207.47;;;0.71;72.00
58757;BME280;44527;47.460;19.016;2023-01-27T06:09:24;100214.25;;;0.75;71.03
58757;BME280;44527;47.460;19.016;2023-01-27T06:12:28;100213.06;;;0.86;70.24
58757;BME280;44527;47.460;19.016;2023-01-27T06:15:30;100209.13;;;1.04;68.27
58757;BME280;44527;47.460;19.016;2023-01-27T06:18:34;100202.41;;;0.97;67.56
58757;BME280;44527;47.460;19.016;2023-01-27T06:21:36;100201.44;;;1.01;67.86
58757;BME280;44527;47.460;19.016;2023-01-27T06:24:39;100200.19;;;1.14;66.44
58757;BME280;44527;47.460;19.016;2023-01-27T06:27:41;100194.09;;;1.45;67.00
58757;BME280;44527;47.460;19.016;2023-01-27T06:30:45;100209.13;;;1.32;64.97
58757;BME280;44527;47.460;19.016;2023-01-27T06:33:49;100207.72;;;1.50;64.86
58757;BME280;44527;47.460;19.016;2023-01-27T06:36:52;100204.25;;;1.51;65.16
58757;BME280;44527;47.460;19.016;2023-01-27T06:39:55;100206.72;;;1.54;63.17
58757;BME280;44527;47.460;19.016;2023-01-27T06:42:58;100219.91;;;1.75;63.27
58757;BME280;44527;47.460;19.016;2023-01-27T06:46:01;100221.31;;;1.83;61.84
58757;BME280;44527;47.460;19.016;2023-01-27T06:49:07;100212.28;;;1.97;61.20
58757;BME280;44527;47.460;19.016;2023-01-27T06:52:10;100225.25;;;1.95;61.59
58757;BME280;44527;47.460;19.016;2023-01-27T06:55:12;100222.84;;;1.91;60.81
58757;BME280;44527;47.460;19.016;2023-01-27T06:58:15;100220.81;;;1.99;62.16
58757;BME280;44527;47.460;19.016;2023-01-27T07:01:17;100227.25;;;2.14;60.08
58757;BME280;44527;47.460;19.016;2023-01-27T07:04:21;100225.38;;;2.19;60.18
58757;BME280;44527;47.460;19.016;2023-01-27T07:07:23;100218.75;;;2.35;60.01
58757;BME280;44527;47.460;19.016;2023-01-27T07:10:26;100225.84;;;2.30;58.52
58757;BME280;44527;47.460;19.016;2023-01-27T07:13:28;100228.47;;;2.28;57.60
58757;BME280;44527;47.460;19.016;2023-01-27T07:16:31;100227.81;;;2.48;57.68
58757;BME280;44527;47.460;19.016;2023-01-27T07:19:33;100227.31;;;2.62;56.73
58757;BME280;44527;47.460;19.016;2023-01-27T07:22:37;100227.94;;;2.69;57.03
58757;BME280;44527;47.460;19.016;2023-01-27T07:25:40;100229.12;;;2.85;56.63
58757;BME280;44527;47.460;19.016;2023-01-27T07:28:42;100237.66;;;2.87;57.28
58757;BME280;44527;47.460;19.016;2023-01-27T07:31:45;100235.97;;;2.86;55.73
58757;BME280;44527;47.460;19.016;2023-01-27T07:34:47;100237.78;;;2.84;56.40
58757;BME280;44527;47.460;19.016;2023-01-27T07:37:49;100240.03;;;2.93;55.52
58757;BME280;44527;47.460;19.016;2023-01-27T07:40:52;100238.97;;;2.99;55.54
58757;BME280;44527;47.460;19.016;2023-01-27T07:43:54;100238.91;;;2.77;55.87
58757;BME280;44527;47.460;19.016;2023-01-27T07:46:58;100237.56;;;2.65;56.41
58757;BME280;44527;47.460;19.016;2023-01-27T07:50:01;100229.44;;;2.76;56.22
58757;BME280;44527;47.460;19.016;2023-01-27T07:53:04;100226.56;;;2.84;56.06
58757;BME280;44527;47.460;19.016;2023-01-27T07:56:07;100227.91;;;2.70;56.66
58757;BME280;44527;47.460;19.016;2023-01-27T07:59:13;100215.19;;;2.88;56.75
58757;BME280;44527;47.460;19.016;2023-01-27T08:02:16;100218.34;;;2.96;55.68
58757;BME280;44527;47.460;19.016;2023-01-27T08:05:19;100232.47;;;2.87;55.84
58757;BME280;44527;47.460;19.016;2023-01-27T08:08:21;100236.03;;;2.85;55.41
58757;BME280;44527;47.460;19.016;2023-01-27T08:11:24;100224.94;;;3.05;54.59
58757;BME280;44527;47.460;19.016;2023-01-27T08:14:27;100235.19;;;3.08;55.44
58757;BME280;44527;47.460;19.016;2023-01-27T08:17:29;100239.25;;;2.91;55.33
58757;BME280;44527;47.460;19.016;2023-01-27T08:20:32;100233.94;;;2.71;56.33
58757;BME280;44527;47.460;19.016;2023-01-27T08:23:35;100241.38;;;2.80;54.84
58757;BME280;44527;47.460;19.016;2023-01-27T08:26:38;100234.56;;;2.78;55.78
58757;BME280;44527;47.460;19.016;2023-01-27T08:29:43;100230.97;;;3.05;55.08
58757;BME280;44527;47.460;19.016;2023-01-27T08:32:45;100237.09;;;2.79;55.18
58757;BME280;44527;47.460;19.016;2023-01-27T08:35:50;100240.13;;;2.67;56.54
58757;BME280;44527;47.460;19.016;2023-01-27T08:38:54;100241.59;;;2.74;55.58
58757;BME280;44527;47.460;19.016;2023-01-27T08:41:57;100238.56;;;2.86;55.12
58757;BME280;44527;47.460;19.016;2023-01-27T08:44:59;100243.34;;;3.20;55.06
58757;BME280;44527;47.460;19.016;2023-01-27T08:48:02;100246.56;;;3.27;54.98
58757;BME280;44527;47.460;19.016;2023-01-27T08:51:11;100249.34;;;3.22;55.58
58757;BME280;44527;47.460;19.016;2023-01-27T08:54:14;100254.34;;;3.27;54.84
58757;BME280;44527;47.460;19.016;2023-01-27T08:57:17;100250.78;;;3.30;54.13
58757;BME280;44527;47.460;19.016;2023-01-27T09:00:20;100254.00;;;3.36;55.42
58757;BME280;44527;47.460;19.016;2023-01-27T09:03:23;100246.06;;;3.41;54.02
58757;BME280;44527;47.460;19.016;2023-01-27T09:06:27;100247.97;;;3.36;54.03
58757;BME280;44527;47.460;19.016;2023-01-27T09:09:29;100247.94;;;3.14;55.32
58757;BME280;44527;47.460;19.016;2023-01-27T09:12:32;100256.72;;;3.33;54.85
58757;BME280;44527;47.460;19.016;2023-01-27T09:15:35;100260.94;;;2.89;55.14
58757;BME280;44527;47.460;19.016;2023-01-27T09:18:38;100262.81;;;2.85;57.51
58757;BME280;44527;47.460;19.016;2023-01-27T09:21:42;100262.75;;;2.37;59.56
58757;BME280;44527;47.460;19.016;2023-01-27T09:24:47;100267.34;;;2.28;59.76
58757;BME280;44527;47.460;19.016;2023-01-27T09:27:55;100271.66;;;2.28;60.73
58757;BME280;44527;47.460;19.016;2023-01-27T09:30:58;100272.28;;;2.10;63.24
58757;BME280;44527;47.460;19.016;2023-01-27T09:34:01;100265.50;;;2.05;63.60
58757;BME280;44527;47.460;19.016;2023-01-27T09:37:07;100264.06;;;1.97;64.87
58757;BME280;44527;47.460;19.016;2023-01-27T09:40:37;100260.56;;;1.98;65.06
58757;BME280;44527;47.460;19.016;2023-01-27T09:47:14;100265.41;;;2.09;64.82
58757;BME280;44527;47.460;19.016;2023-01-27T09:53:59;100264.50;;;2.36;64.65
58757;BME280;44527;47.460;19.016;2023-01-27T09:57:17;100266.16;;;2.64;61.75
58757;BME280;44527;47.460;19.016;2023-01-27T10:04:19;100264.00;;;2.75;61.67
58757;BME280;44527;47.460;19.016;2023-01-27T10:11:06;100264.00;;;3.00;62.11
58757;BME280;44527;47.460;19.016;2023-01-27T10:18:19;100256.22;;;2.51;62.98
58757;BME280;44527;47.460;19.016;2023-01-27T10:21:51;100265.50;;;2.57;63.96
58757;BME280;44527;47.460;19.016;2023-01-27T10:28:14;100264.75;;;3.04;65.17
58757;BME280;44527;47.460;19.016;2023-01-27T10:31:26;100259.94;;;2.93;64.31
58757;BME280;44527;47.460;19.016;2023-01-27T10:34:35;100260.66;;;2.96;63.26
58757;BME280;44527;47.460;19.016;2023-01-27T10:38:09;100264.28;;;2.92;64.40
58757;BME280;44527;47.460;19.016;2023-01-27T10:45:20;100254.31;;;3.29;63.62
58757;BME280;44527;47.460;19.016;2023-01-27T10:48:48;100253.69;;;3.22;63.72
58757;BME280;44527;47.460;19.016;2023-01-27T10:51:56;100251.09;;;3.22;64.06
58757;BME280;44527;47.460;19.016;2023-01-27T10:58:28;100263.00;;;3.04;65.34
58757;BME280;44527;47.460;19.016;2023-01-27T11:01:36;100249.84;;;3.09;65.28
58757;BME280;44527;47.460;19.016;2023-01-27T11:04:53;100237.09;;;3.03;66.90
58757;BME280;44527;47.460;19.016;2023-01-27T11:08:18;100242.47;;;3.21;67.16
58757;BME280;44527;47.460;19.016;2023-01-27T11:11:24;100238.41;;;2.91;67.50
58757;BME280;44527;47.460;19.016;2023-01-27T11:14:50;100225.28;;;2.95;67.86
58757;BME280;44527;47.460;19.016;2023-01-27T11:18:07;100229.78;;;3.37;69.37
58757;BME280;44527;47.460;19.016;2023-01-27T11:21:19;100231.41;;;3.16;69.28
58757;BME280;44527;47.460;19.016;2023-01-27T11:24:46;100231.66;;;3.10;70.61
58757;BME280;44527;47.460;19.016;2023-01-27T11:34:24;100219.84;;;3.25;70.99
58757;BME280;44527;47.460;19.016;2023-01-27T11:37:37;100218.34;;;3.19;70.50
58757;BME280;44527;47.460;19.016;2023-01-27T11:40:40;100217.53;;;3.17;71.19
58757;BME280;44527;47.460;19.016;2023-01-27T11:43:44;100214.00;;;3.20;71.43
58757;BME280;44527;47.460;19.016;2023-01-27T11:46:47;100206.75;;;3.06;71.50
58757;BME280;44527;47.460;19.016;2023-01-27T11:49:51;100206.97;;;3.00;71.82
58757;BME280;44527;47.460;19.016;2023-01-27T11:53:24;100209.87;;;3.14;72.48
58757;BME280;44527;47.460;19.016;2023-01-27T11:56:31;100191.44;;;3.22;72.23
58757;BME280;44527;47.460;19.016;2023-01-27T11:59:38;100189.03;;;3.39;71.42
58757;BME280;44527;47.460;19.016;2023-01-27T12:02:47;100181.72;;;3.27;70.40
58757;BME280;44527;47.460;19.016;2023-01-27T12:06:04;100187.94;;;3.23;70.78
58757;BME280;44527;47.460;19.016;2023-01-27T12:09:29;100184.62;;;3.41;71.92
58757;BME280;44527;47.460;19.016;2023-01-27T12:12:36;100183.19;;;3.56;72.23
58757;BME280;44527;47.460;19.016;2023-01-27T12:15:47;100171.97;;;3.34;70.61
58757;BME280;44527;47.460;19.016;2023-01-27T12:22:29;100166.22;;;3.26;71.39
58757;BME280;44527;47.460;19.016;2023-01-27T12:25:44;100165.63;;;3.41;70.80
58757;BME280;44527;47.460;19.016;2023-01-27T12:28:52;100161.03;;;3.48;70.61
58757;BME280;44527;47.460;19.016;2023-01-27T12:31:57;100163.28;;;3.57;71.10
58757;BME280;44527;47.460;19.016;2023-01-27T12:35:00;100160.75;;;3.55;71.49
58757;BME280;44527;47.460;19.016;2023-01-27T12:38:12;100156.31;;;3.57;70.76
58757;BME280;44527;47.460;19.016;2023-01-27T12:41:22;100148.91;;;3.26;71.52
58757;BME280;44527;47.460;19.016;2023-01-27T12:44:25;100148.13;;;3.24;71.91
58757;BME280;44527;47.460;19.016;2023-01-27T12:47:29;100151.53;;;3.03;73.25
58757;BME280;44527;47.460;19.016;2023-01-27T12:50:35;100153.94;;;3.31;72.89
58757;BME280;44527;47.460;19.016;2023-01-27T12:53:41;100156.34;;;3.35;73.70
58757;BME280;44527;47.460;19.016;2023-01-27T12:56:50;100149.94;;;3.44;72.70
58757;BME280;44527;47.460;19.016;2023-01-27T12:59:56;100150.13;;;3.61;72.39
58757;BME280;44527;47.460;19.016;2023-01-27T13:03:05;100146.50;;;3.21;74.31
58757;BME280;44527;47.460;19.016;2023-01-27T13:06:15;100158.22;;;3.32;73.25
58757;BME280;44527;47.460;19.016;2023-01-27T13:09:38;100154.06;;;3.28;73.79
58757;BME280;44527;47.460;19.016;2023-01-27T13:15:52;100155.63;;;3.32;76.20
58757;BME280;44527;47.460;19.016;2023-01-27T13:18:59;100150.97;;;3.40;75.66
58757;BME280;44527;47.460;19.016;2023-01-27T13:22:02;100156.75;;;3.68;75.95
58757;BME280;44527;47.460;19.016;2023-01-27T13:25:15;100164.91;;;3.59;76.03
58757;BME280;44527;47.460;19.016;2023-01-27T13:28:25;100177.41;;;3.50;76.81
58757;BME280;44527;47.460;19.016;2023-01-27T13:31:32;100172.50;;;3.42;76.88
58757;BME280;44527;47.460;19.016;2023-01-27T13:34:48;100170.03;;;3.17;78.20
58757;BME280;44527;47.460;19.016;2023-01-27T13:38:14;100177.06;;;3.13;78.82
58757;BME280;44527;47.460;19.016;2023-01-27T13:44:50;100174.47;;;3.13;78.55
58757;BME280;44527;47.460;19.016;2023-01-27T13:48:03;100177.47;;;3.03;79.65
58757;BME280;44527;47.460;19.016;2023-01-27T13:51:09;100173.91;;;3.05;79.57
58757;BME280;44527;47.460;19.016;2023-01-27T13:54:14;100187.19;;;2.97;80.89
58757;BME280;44527;47.460;19.016;2023-01-27T13:57:41;100182.16;;;3.16;79.94
58757;BME280;44527;47.460;19.016;2023-01-27T14:01:37;100183.94;;;3.14;80.45
58757;BME280;44527;47.460;19.016;2023-01-27T14:18:41;100170.38;;;3.30;79.60
58757;BME280;44527;47.460;19.016;2023-01-27T14:21:53;100166.88;;;3.09;81.03
58757;BME280;44527;47.460;19.016;2023-01-27T14:25:22;100174.84;;;3.26;80.54
58757;BME280;44527;47.460;19.016;2023-01-27T14:45:33;100172.31;;;2.79;83.92
58757;BME280;44527;47.460;19.016;2023-01-27T15:01:53;100168.22;;;2.72;84.58
58757;BME280;44527;47.460;19.016;2023-01-27T15:05:06;100164.03;;;2.69;84.89
58757;BME280;44527;47.460;19.016;2023-01-27T15:26:01;100167.75;;;2.86;84.90
58757;BME280;44527;47.460;19.016;2023-01-27T15:29:12;100165.50;;;3.00;83.68
58757;BME280;44527;47.460;19.016;2023-01-27T15:38:32;100188.25;;;3.15;81.82
58757;BME280;44527;47.460;19.016;2023-01-27T15:45:00;100184.81;;;2.91;82.64
58757;BME280;44527;47.460;19.016;2023-01-27T15:48:13;100188.53;;;3.08;80.98
58757;BME280;44527;47.460;19.016;2023-01-27T15:51:17;100194.13;;;2.97;80.43
58757;BME280;44527;47.460;19.016;2023-01-27T15:54:24;100194.22;;;2.94;80.64
58757;BME280;44527;47.460;19.016;2023-01-27T15:57:34;100186.13;;;3.03;79.88
58757;BME280;44527;47.460;19.016;2023-01-27T16:00:41;100186.00;;;3.06;77.91
58757;BME280;44527;47.460;19.016;2023-01-27T16:03:50;100189.66;;;3.01;78.41
58757;BME280;44527;47.460;19.016;2023-01-27T16:07:03;100177.94;;;2.67;77.86
58757;BME280;44527;47.460;19.016;2023-01-27T16:10:14;100189.37;;;2.61;78.45
58757;BME280;44527;47.460;19.016;2023-01-27T16:13:28;100186.13;;;2.80;78.52
58757;BME280;44527;47.460;19.016;2023-01-27T16:16:32;100189.87;;;2.71;78.24
58757;BME280;44527;47.460;19.016;2023-01-27T16:19:43;100198.66;;;2.90;77.40
58757;BME280;44527;47.460;19.016;2023-01-27T16:22:56;100196.41;;;2.81;77.56
58757;BME280;44527;47.460;19.016;2023-01-27T16:26:42;100196.19;;;2.87;77.05
58757;BME280;44527;47.460;19.016;2023-01-27T16:29:56;100207.53;;;2.85;76.70
58757;BME280;44527;47.460;19.016;2023-01-27T16:33:02;100205.44;;;2.71;76.46
58757;BME280;44527;47.460;19.016;2023-01-27T16:36:18;100217.72;;;2.89;77.20
58757;BME280;44527;47.460;19.016;2023-01-27T16:39:55;100213.94;;;2.98;76.46
58757;BME280;44527;47.460;19.016;2023-01-27T16:43:04;100221.16;;;2.90;76.20
58757;BME280;44527;47.460;19.016;2023-01-27T16:49:34;100234.13;;;2.90;75.73
58757;BME280;44527;47.460;19.016;2023-01-27T16:52:38;100234.13;;;2.90;76.11
58757;BME280;44527;47.460;19.016;2023-01-27T16:59:24;100238.06;;;2.76;77.55
58757;BME280;44527;47.460;19.016;2023-01-27T17:02:30;100235.00;;;2.65;77.22
58757;BME280;44527;47.460;19.016;2023-01-27T17:05:33;100240.53;;;2.80;76.58
58757;BME280;44527;47.460;19.016;2023-01-27T17:08:45;100237.44;;;2.93;76.24
58757;BME280;44527;47.460;19.016;2023-01-27T17:11:50;100242.50;;;2.96;75.55
58757;BME280;44527;47.460;19.016;2023-01-27T17:14:56;100237.28;;;2.98;75.47
58757;BME280;44527;47.460;19.016;2023-01-27T17:17:58;100246.31;;;2.88;76.44
58757;BME280;44527;47.460;19.016;2023-01-27T17:21:02;100251.19;;;2.95;75.11
58757;BME280;44527;47.460;19.016;2023-01-27T17:24:20;100250.78;;;2.83;75.75
58757;BME280;44527;47.460;19.016;2023-01-27T17:27:29;100247.91;;;2.90;75.70
58757;BME280;44527;47.460;19.016;2023-01-27T17:30:36;100245.34;;;3.14;75.74
58757;BME280;44527;47.460;19.016;2023-01-27T17:33:44;100253.34;;;3.08;75.13
58757;BME280;44527;47.460;19.016;2023-01-27T17:37:12;100246.53;;;2.82;76.81
58757;BME280;44527;47.460;19.016;2023-01-27T17:40:19;100249.84;;;2.85;76.52
58757;BME280;44527;47.460;19.016;2023-01-27T17:43:22;100247.25;;;2.85;76.53
58757;BME280;44527;47.460;19.016;2023-01-27T17:46:32;100249.00;;;2.60;77.54
58757;BME280;44527;47.460;19.016;2023-01-27T17:49:35;100249.22;;;2.53;78.72
58757;BME280;44527;47.460;19.016;2023-01-27T17:52:41;100248.41;;;2.76;77.68
58757;BME280;44527;47.460;19.016;2023-01-27T17:55:54;100249.56;;;2.93;77.26
58757;BME280;44527;47.460;19.016;2023-01-27T17:59:02;100253.66;;;3.00;76.51
58757;BME280;44527;47.460;19.016;2023-01-27T18:02:15;100249.63;;;2.91;77.07
58757;BME280;44527;47.460;19.016;2023-01-27T18:05:24;100247.59;;;2.99;76.55
58757;BME280;44527;47.460;19.016;2023-01-27T18:08:32;100247.66;;;2.98;76.31
58757;BME280;44527;47.460;19.016;2023-01-27T18:11:35;100251.66;;;3.07;76.25
58757;BME280;44527;47.460;19.016;2023-01-27T18:14:41;100257.00;;;3.02;76.18
58757;BME280;44527;47.460;19.016;2023-01-27T18:17:57;100251.88;;;3.01;75.84
58757;BME280;44527;47.460;19.016;2023-01-27T18:24:19;100269.09;;;3.03;75.47
58757;BME280;44527;47.460;19.016;2023-01-27T18:27:30;100276.28;;;2.95;75.93